createdAt,value
2019-03-03T00:00:41.701Z,41.35
2019-03-03T00:03:11.273Z,44.63
2019-03-03T00:05:40.158Z,50.66
2019-03-03T00:08:08.738Z,43.73
2019-03-03T00:10:43.137Z,41.77
2019-03-03T00:13:09.094Z,46.60
2019-03-03T00:15:37.690Z,40.43
2019-03-03T00:18:06.041Z,41.73
2019-03-03T00:20:37.078Z,33.13
2019-03-03T00:23:05.580Z,42.33
2019-03-03T00:25:33.979Z,42.17
2019-03-03T00:28:02.515Z,37.67
2019-03-03T00:30:30.931Z,35.30
2019-03-03T00:32:59.393Z,43.90
2019-03-03T00:35:27.787Z,38.02
2019-03-03T00:38:04.065Z,26.75
2019-03-03T00:40:43.390Z,42.43
2019-03-03T00:43:29.469Z,31.15
2019-03-03T00:46:11.745Z,34.30
2019-03-03T00:48:41.783Z,32.35
2019-03-03T00:51:11.850Z,37.63
2019-03-03T00:53:47.849Z,31.30
2019-03-03T00:56:17.887Z,32.08
2019-03-03T00:59:04.181Z,32.37
2019-03-03T01:01:34.727Z,26.93
2019-03-03T01:04:21.170Z,25.48
2019-03-03T01:06:57.692Z,32.30
2019-03-03T01:09:54.902Z,23.25
2019-03-03T01:12:36.638Z,22.77
2019-03-03T01:15:11.622Z,23.67
2019-03-03T01:17:41.590Z,23.67
2019-03-03T01:20:15.054Z,19.23
2019-03-03T01:22:45.082Z,23.25
2019-03-03T01:25:13.459Z,20.60
2019-03-03T01:27:41.914Z,19.80
2019-03-03T01:30:12.323Z,14.80
2019-03-03T01:32:40.719Z,25.77
2019-03-03T01:35:10.492Z,18.53
2019-03-03T01:37:38.890Z,16.23
2019-03-03T01:40:11.517Z,21.07
2019-03-03T01:42:39.905Z,18.07
2019-03-03T01:45:11.629Z,19.87
2019-03-03T01:47:40.025Z,17.13
2019-03-03T01:50:13.258Z,18.00
2019-03-03T01:52:41.722Z,12.70
2019-03-03T01:55:11.525Z,12.15
2019-03-03T01:57:39.982Z,16.52
2019-03-03T02:00:23.853Z,12.33
2019-03-03T02:02:52.250Z,12.37
2019-03-03T02:05:20.707Z,11.85
2019-03-03T02:07:49.115Z,11.43
2019-03-03T02:10:18.718Z,11.10
2019-03-03T02:12:47.010Z,9.48
2019-03-03T02:15:15.567Z,9.83
2019-03-03T02:17:44.331Z,11.97
2019-03-03T02:20:12.773Z,11.35
2019-03-03T02:22:41.137Z,9.93
2019-03-03T02:25:11.575Z,11.12
2019-03-03T02:27:40.246Z,9.05
2019-03-03T02:30:12.368Z,10.15
2019-03-03T02:35:08.431Z,9.28
2019-03-03T02:37:36.823Z,11.18
2019-03-03T02:40:08.702Z,12.55
2019-03-03T02:42:37.154Z,11.05
2019-03-03T02:45:08.609Z,9.33
2019-03-03T02:47:37.000Z,11.75
2019-03-03T02:50:08.122Z,9.93
2019-03-03T02:52:36.510Z,11.60
2019-03-03T02:57:40.231Z,13.15
2019-03-03T03:00:11.889Z,11.68
2019-03-03T03:02:41.916Z,13.37
2019-03-03T03:05:10.291Z,13.33
2019-03-03T03:07:40.331Z,14.28
2019-03-03T03:10:13.009Z,14.25
2019-03-03T03:12:43.046Z,12.47
2019-03-03T03:15:16.217Z,13.38
2019-03-03T03:17:46.265Z,15.78
2019-03-03T03:20:22.337Z,13.13
2019-03-03T03:22:58.168Z,12.73
2019-03-03T03:25:30.837Z,13.15
2019-03-03T03:28:00.935Z,14.40
2019-03-03T03:30:36.754Z,12.05
2019-03-03T03:33:09.458Z,13.33
2019-03-03T03:35:39.523Z,14.10
2019-03-03T03:38:12.163Z,12.88
2019-03-03T03:40:54.245Z,12.68
2019-03-03T03:43:40.527Z,12.20
2019-03-03T03:46:13.250Z,17.07
2019-03-03T03:48:46.251Z,13.45
2019-03-03T03:51:18.978Z,14.53
2019-03-03T03:53:49.018Z,15.32
2019-03-03T03:56:21.786Z,17.50
2019-03-03T03:58:57.531Z,14.35
2019-03-03T04:01:36.722Z,18.32
2019-03-03T04:04:19.057Z,19.17
2019-03-03T04:06:58.246Z,15.23
2019-03-03T04:09:28.929Z,15.20
2019-03-03T04:11:58.976Z,17.85
2019-03-03T04:14:34.848Z,16.05
2019-03-03T04:17:07.193Z,16.60
2019-03-03T04:19:37.887Z,13.30
2019-03-03T04:22:07.965Z,14.05
2019-03-03T04:24:37.993Z,14.05
2019-03-03T04:27:08.062Z,11.60
2019-03-03T04:29:44.213Z,14.85
2019-03-03T04:32:26.418Z,14.23
2019-03-03T04:34:59.251Z,12.88
2019-03-03T04:37:32.438Z,11.12
2019-03-03T04:40:14.622Z,12.88
2019-03-03T04:42:44.581Z,12.60
2019-03-03T04:45:17.347Z,11.48
2019-03-03T04:47:55.850Z,10.50
2019-03-03T04:50:34.984Z,11.90
2019-03-03T04:53:05.015Z,10.70
2019-03-03T04:55:46.970Z,10.98
2019-03-03T05:01:07.241Z,15.23
2019-03-03T05:03:37.340Z,12.37
2019-03-03T05:06:10.073Z,14.70
2019-03-03T05:08:43.069Z,14.70
2019-03-03T05:11:15.185Z,13.22
2019-03-03T05:16:17.575Z,13.15
2019-03-03T05:18:53.397Z,16.05
2019-03-03T05:21:21.783Z,17.95
2019-03-03T05:23:50.170Z,13.87
2019-03-03T05:26:18.580Z,18.45
2019-03-03T05:28:47.049Z,16.48
2019-03-03T05:31:15.377Z,16.15
2019-03-03T05:33:43.758Z,14.13
2019-03-03T05:36:12.150Z,17.45
2019-03-03T05:38:40.629Z,14.28
2019-03-03T05:41:09.109Z,14.73
2019-03-03T05:43:37.473Z,11.97
2019-03-03T05:46:05.890Z,11.10
2019-03-03T05:48:34.246Z,10.98
2019-03-03T05:51:03.254Z,12.75
2019-03-03T05:53:31.618Z,11.73
2019-03-03T05:55:59.998Z,11.05
2019-03-03T05:58:28.364Z,10.63
2019-03-03T06:00:56.820Z,12.03
2019-03-03T06:03:25.201Z,11.13
2019-03-03T06:05:53.586Z,11.45
2019-03-03T06:08:22.033Z,10.68
2019-03-03T06:10:50.425Z,11.33
2019-03-03T06:13:18.853Z,12.58
2019-03-03T06:15:47.216Z,12.40
2019-03-03T06:18:15.601Z,12.70
2019-03-03T06:20:44.347Z,12.73
2019-03-03T06:23:12.727Z,13.98
2019-03-03T06:25:41.042Z,13.30
2019-03-03T06:28:09.437Z,13.13
2019-03-03T06:30:37.838Z,15.32
2019-03-03T06:33:06.234Z,12.78
2019-03-03T06:35:34.640Z,14.40
2019-03-03T06:38:03.090Z,14.73
2019-03-03T06:40:31.492Z,15.58
2019-03-03T06:42:59.945Z,14.73
2019-03-03T06:45:28.400Z,13.50
2019-03-03T06:47:56.794Z,14.63
2019-03-03T06:50:25.160Z,15.13
2019-03-03T06:52:53.655Z,15.65
2019-03-03T06:55:21.942Z,13.90
2019-03-03T06:57:50.292Z,14.83
2019-03-03T07:00:18.723Z,12.40
2019-03-03T07:02:47.093Z,13.50
2019-03-03T07:05:15.523Z,13.22
2019-03-03T07:07:43.885Z,13.10
2019-03-03T07:10:13.507Z,9.80
2019-03-03T07:12:41.911Z,12.53
2019-03-03T07:15:12.643Z,10.43
2019-03-03T07:17:41.043Z,11.45
2019-03-03T07:20:11.176Z,12.15
2019-03-03T07:22:39.637Z,10.80
2019-03-03T07:25:09.981Z,9.75
2019-03-03T07:27:38.445Z,10.00
2019-03-03T07:30:15.535Z,8.38
2019-03-03T07:33:04.382Z,7.33
2019-03-03T07:35:32.757Z,9.55
2019-03-03T07:38:01.122Z,9.95
2019-03-03T07:40:29.504Z,9.78
2019-03-03T07:42:57.882Z,9.03
2019-03-03T07:45:26.270Z,12.13
2019-03-03T07:47:54.760Z,13.08
2019-03-03T07:50:23.226Z,11.07
2019-03-03T07:52:51.603Z,11.33
2019-03-03T07:55:20.009Z,10.40
2019-03-03T07:57:48.579Z,11.75
2019-03-03T08:00:17.502Z,9.48
2019-03-03T08:02:45.867Z,10.35
2019-03-03T08:05:14.201Z,10.30
2019-03-03T08:07:42.618Z,10.15
2019-03-03T08:10:13.347Z,8.63
2019-03-03T08:12:41.789Z,8.68
2019-03-03T08:15:17.425Z,9.73
2019-03-03T08:17:45.813Z,7.28
2019-03-03T08:20:14.617Z,9.38
2019-03-03T08:22:42.997Z,8.35
2019-03-03T08:25:12.187Z,9.58
2019-03-03T08:27:40.487Z,11.75
2019-03-03T08:30:16.669Z,7.00
2019-03-03T08:32:45.066Z,12.20
2019-03-03T08:35:16.006Z,8.73
2019-03-03T08:37:44.318Z,11.17
2019-03-03T08:40:12.712Z,11.20
2019-03-03T08:42:45.435Z,10.43
2019-03-03T08:45:21.150Z,13.53
2019-03-03T08:48:09.874Z,10.50
2019-03-03T08:50:39.939Z,9.98
2019-03-03T08:53:12.836Z,10.70
2019-03-03T08:55:45.509Z,8.55
2019-03-03T08:58:15.532Z,8.58
2019-03-03T09:00:54.689Z,8.23
2019-03-03T09:03:27.404Z,7.33
2019-03-03T09:05:57.425Z,6.50
2019-03-03T09:08:43.540Z,6.10
2019-03-03T09:11:25.663Z,8.68
2019-03-03T09:14:07.451Z,7.77
2019-03-03T09:16:53.720Z,10.10
2019-03-03T09:19:23.734Z,10.23
2019-03-03T09:21:53.834Z,11.53
2019-03-03T09:24:27.483Z,11.37
2019-03-03T09:27:03.234Z,12.35
2019-03-03T09:29:35.894Z,16.67
2019-03-03T09:32:14.883Z,13.72
2019-03-03T09:34:47.595Z,17.87
2019-03-03T09:37:17.634Z,15.68
2019-03-03T09:39:47.722Z,13.40
2019-03-03T09:42:23.463Z,23.07
2019-03-03T09:44:53.458Z,15.48
2019-03-03T09:47:38.767Z,15.15
2019-03-03T09:50:14.061Z,25.97
2019-03-03T09:52:44.065Z,15.68
2019-03-03T09:55:16.801Z,24.40
2019-03-03T09:57:46.869Z,17.05
2019-03-03T10:00:16.865Z,22.23
2019-03-03T10:02:49.711Z,18.57
2019-03-03T10:05:22.486Z,25.67
2019-03-03T10:07:52.499Z,20.70
2019-03-03T10:10:25.546Z,18.82
2019-03-03T10:13:07.451Z,15.85
2019-03-03T10:15:52.470Z,19.10
2019-03-03T10:18:25.286Z,24.27
2019-03-03T10:21:03.103Z,22.10
2019-03-03T10:23:48.191Z,23.20
2019-03-03T10:26:24.257Z,19.27
2019-03-03T10:29:12.600Z,23.02
2019-03-03T10:31:43.728Z,24.75
2019-03-03T10:34:16.736Z,23.47
2019-03-03T10:37:01.820Z,28.23
2019-03-03T10:39:31.839Z,26.87
2019-03-03T10:42:18.050Z,22.07
2019-03-03T10:45:06.343Z,17.23
2019-03-03T10:47:42.389Z,24.70
2019-03-03T10:53:04.409Z,30.40
2019-03-03T10:55:48.188Z,26.15
2019-03-03T10:58:18.162Z,29.63
2019-03-03T11:00:48.127Z,14.58
2019-03-03T11:03:18.146Z,23.32
2019-03-03T11:06:03.141Z,20.85
2019-03-03T11:08:39.213Z,22.13
2019-03-03T11:11:14.982Z,30.85
2019-03-03T11:13:48.044Z,29.13
2019-03-03T11:16:34.290Z,27.40
2019-03-03T11:19:07.275Z,27.73
2019-03-03T11:21:49.369Z,31.10
2019-03-03T11:24:22.481Z,18.73
2019-03-03T11:26:55.339Z,21.77
2019-03-03T11:29:25.332Z,13.88
2019-03-03T11:31:58.181Z,28.10
2019-03-03T11:34:44.051Z,27.65
2019-03-03T11:37:26.287Z,28.07
2019-03-03T11:40:02.266Z,23.38
2019-03-03T11:42:32.341Z,27.58
2019-03-03T11:45:11.807Z,17.95
2019-03-03T11:47:47.681Z,29.18
2019-03-03T11:50:20.585Z,24.07
2019-03-03T11:53:08.617Z,30.05
2019-03-03T11:55:44.446Z,22.65
2019-03-03T11:58:31.010Z,24.63
2019-03-03T12:01:06.446Z,14.58
2019-03-03T12:03:42.571Z,27.77
2019-03-03T12:06:12.606Z,24.52
2019-03-03T12:08:45.374Z,30.80
2019-03-03T12:11:24.076Z,14.70
2019-03-03T12:13:56.882Z,26.27
2019-03-03T12:16:26.900Z,28.20
2019-03-03T12:19:13.170Z,21.65
2019-03-03T12:24:44.409Z,30.97
2019-03-03T12:27:29.430Z,28.07
2019-03-03T12:29:59.527Z,25.97
2019-03-03T12:32:32.429Z,30.80
2019-03-03T12:35:11.735Z,24.35
2019-03-03T12:37:48.067Z,20.88
2019-03-03T12:40:30.421Z,31.48
2019-03-03T12:43:00.471Z,30.00
2019-03-03T12:45:33.711Z,31.30
2019-03-03T12:48:06.695Z,35.60
2019-03-03T12:50:52.951Z,41.25
2019-03-03T12:53:34.733Z,21.60
2019-03-03T12:56:10.779Z,27.77
2019-03-03T12:58:59.174Z,27.75
2019-03-03T13:01:32.096Z,21.82
2019-03-03T13:07:02.984Z,40.92
2019-03-03T13:09:38.707Z,36.80
2019-03-03T13:12:24.764Z,27.35
2019-03-03T13:14:54.773Z,29.07
2019-03-03T13:17:24.809Z,22.35
2019-03-03T13:20:11.177Z,20.70
2019-03-03T13:22:53.093Z,32.40
2019-03-03T13:25:23.099Z,33.40
2019-03-03T13:27:53.144Z,20.92
2019-03-03T13:30:28.871Z,33.25
2019-03-03T13:33:04.639Z,28.70
2019-03-03T13:35:34.656Z,29.90
2019-03-03T13:38:16.794Z,28.30
2019-03-03T13:40:46.764Z,29.70
2019-03-03T13:43:15.229Z,27.75
2019-03-03T13:45:43.608Z,30.17
2019-03-03T13:48:11.986Z,31.60
2019-03-03T13:50:40.382Z,18.67
2019-03-03T13:53:08.850Z,23.77
2019-03-03T13:55:37.237Z,33.93
2019-03-03T13:58:05.596Z,31.48
2019-03-03T14:00:34.066Z,25.97
2019-03-03T14:03:02.464Z,20.45
2019-03-03T14:05:30.846Z,32.42
2019-03-03T14:07:59.240Z,34.55
2019-03-03T14:10:27.636Z,22.62
2019-03-03T14:12:56.919Z,16.82
2019-03-03T14:15:25.381Z,21.20
2019-03-03T14:17:53.808Z,25.35
2019-03-03T14:20:23.134Z,32.00
2019-03-03T14:22:52.892Z,35.50
2019-03-03T14:25:21.323Z,25.20
2019-03-03T14:27:49.702Z,40.10
2019-03-03T14:30:25.895Z,44.33
2019-03-03T14:32:54.287Z,31.37
2019-03-03T14:35:22.669Z,30.85
2019-03-03T14:37:50.989Z,36.53
2019-03-03T14:40:21.638Z,24.63
2019-03-03T14:42:49.997Z,25.75
2019-03-03T14:45:19.134Z,35.07
2019-03-03T14:47:47.614Z,28.10
2019-03-03T14:50:20.522Z,23.83
2019-03-03T14:52:51.031Z,30.15
2019-03-03T14:55:20.240Z,37.63
2019-03-03T14:57:48.622Z,27.77
2019-03-03T15:00:32.561Z,23.85
2019-03-03T15:03:02.674Z,38.02
2019-03-03T15:05:31.039Z,31.70
2019-03-03T15:07:59.384Z,27.35
2019-03-03T15:10:27.762Z,29.60
2019-03-03T15:12:56.173Z,31.45
2019-03-03T15:15:29.700Z,28.03
2019-03-03T15:17:58.034Z,27.75
2019-03-03T15:20:26.470Z,30.52
2019-03-03T15:22:54.869Z,36.25
2019-03-03T15:25:23.239Z,30.02
2019-03-03T15:27:51.664Z,23.57
2019-03-03T15:30:21.273Z,29.98
2019-03-03T15:32:50.277Z,28.17
2019-03-03T15:35:18.597Z,36.95
2019-03-03T15:37:47.101Z,30.08
2019-03-03T15:40:20.664Z,31.68
2019-03-03T15:42:49.054Z,36.48
2019-03-03T15:45:19.569Z,39.07
2019-03-03T15:47:47.950Z,30.57
2019-03-03T15:50:17.351Z,44.03
2019-03-03T15:52:45.736Z,35.23
2019-03-03T15:55:16.699Z,35.60
2019-03-03T15:57:45.218Z,28.00
2019-03-03T16:00:22.391Z,31.37
2019-03-03T16:02:50.830Z,35.63
2019-03-03T16:05:20.142Z,42.05
2019-03-03T16:07:48.528Z,35.15
2019-03-03T16:10:19.520Z,30.80
2019-03-03T16:12:47.997Z,35.98
2019-03-03T16:15:17.564Z,30.97
2019-03-03T16:17:45.946Z,31.87
2019-03-03T16:20:17.471Z,33.17
2019-03-03T16:22:46.757Z,37.55
2019-03-03T16:25:17.397Z,39.60
2019-03-03T16:27:45.707Z,30.82
2019-03-03T16:30:17.837Z,40.25
2019-03-03T16:32:45.855Z,36.07
2019-03-03T16:35:14.693Z,40.08
2019-03-03T16:37:42.985Z,44.97
2019-03-03T16:40:14.077Z,29.00
2019-03-03T16:42:42.491Z,44.63
2019-03-03T16:45:12.822Z,41.98
2019-03-03T16:47:41.191Z,33.98
2019-03-03T16:50:14.546Z,38.88
2019-03-03T16:52:42.902Z,30.30
2019-03-03T16:55:15.901Z,36.88
2019-03-03T16:57:44.303Z,33.97
2019-03-03T17:00:15.683Z,28.52
2019-03-03T17:02:44.068Z,32.43
2019-03-03T17:05:14.702Z,38.90
2019-03-03T17:07:43.087Z,33.45
2019-03-03T17:10:12.037Z,34.88
2019-03-03T17:12:40.423Z,27.67
2019-03-03T17:15:21.055Z,36.10
2019-03-03T17:17:49.468Z,30.23
2019-03-03T17:20:17.938Z,34.92
2019-03-03T17:22:46.377Z,35.33
2019-03-03T17:25:22.023Z,30.77
2019-03-03T17:27:50.393Z,43.30
2019-03-03T17:30:23.569Z,40.23
2019-03-03T17:32:51.940Z,42.55
2019-03-03T17:35:20.388Z,33.30
2019-03-03T17:37:48.911Z,44.08
2019-03-03T17:40:25.736Z,39.48
2019-03-03T17:42:54.243Z,32.10
2019-03-03T17:45:25.406Z,39.08
2019-03-03T17:47:53.776Z,30.85
2019-03-03T17:50:24.378Z,32.23
2019-03-03T17:52:52.781Z,35.37
2019-03-03T17:55:21.150Z,48.50
2019-03-03T17:57:50.095Z,40.35
2019-03-03T18:00:24.311Z,51.58
2019-03-03T18:02:53.154Z,43.25
2019-03-03T18:05:21.548Z,37.90
2019-03-03T18:07:50.157Z,46.63
2019-03-03T18:10:18.731Z,35.17
2019-03-03T18:12:47.121Z,41.18
2019-03-03T18:15:16.884Z,54.77
2019-03-03T18:17:45.271Z,39.33
2019-03-03T18:20:18.423Z,40.86
2019-03-03T18:22:46.839Z,52.17
2019-03-03T18:25:17.367Z,41.65
2019-03-03T18:27:45.845Z,44.42
2019-03-03T18:30:19.783Z,54.40
2019-03-03T18:32:48.177Z,45.88
2019-03-03T18:35:16.721Z,43.30
2019-03-03T18:37:45.158Z,49.95
2019-03-03T18:40:19.699Z,45.17
2019-03-03T18:42:48.622Z,48.13
2019-03-03T18:45:23.926Z,47.50
2019-03-03T18:47:52.307Z,57.38
2019-03-03T18:50:25.578Z,48.65
2019-03-03T18:52:53.956Z,47.23
2019-03-03T18:55:22.271Z,43.63
2019-03-03T18:57:50.652Z,48.65
2019-03-03T19:00:27.044Z,48.45
2019-03-03T19:02:55.448Z,42.83
2019-03-03T19:05:23.838Z,48.20
2019-03-03T19:07:52.194Z,48.25
2019-03-03T19:10:29.012Z,45.65
2019-03-03T19:12:58.265Z,47.30
2019-03-03T19:15:26.637Z,47.08
2019-03-03T19:17:55.013Z,52.03
2019-03-03T19:20:23.395Z,41.93
2019-03-03T19:22:51.777Z,49.23
2019-03-03T19:25:20.229Z,41.10
2019-03-03T19:27:48.597Z,33.78
2019-03-03T19:30:24.968Z,44.08
2019-03-03T19:33:32.263Z,48.08
2019-03-03T19:36:00.681Z,43.15
2019-03-03T19:38:29.951Z,36.07
2019-03-03T19:40:58.366Z,42.55
2019-03-03T19:43:28.074Z,42.53
2019-03-03T19:46:02.483Z,38.02
2019-03-03T19:48:31.146Z,36.20
2019-03-03T19:50:59.528Z,44.95
2019-03-03T19:53:28.489Z,49.40
2019-03-03T19:55:57.026Z,37.78
2019-03-03T19:58:25.428Z,44.15
2019-03-03T20:00:53.774Z,49.85
2019-03-03T20:03:22.222Z,46.42
2019-03-03T20:05:50.664Z,40.00
2019-03-03T20:08:19.135Z,46.30
2019-03-03T20:10:47.504Z,40.20
2019-03-03T20:13:16.045Z,33.78
2019-03-03T20:15:44.415Z,48.65
2019-03-03T20:18:13.154Z,62.27
2019-03-03T20:20:41.612Z,42.45
2019-03-03T20:23:10.011Z,34.48
2019-03-03T20:25:38.372Z,46.75
2019-03-03T20:28:06.737Z,54.70
2019-03-03T20:30:35.121Z,41.10
2019-03-03T20:33:03.502Z,47.03
2019-03-03T20:35:31.955Z,34.43
2019-03-03T20:38:00.488Z,51.65
2019-03-03T20:40:29.115Z,39.55
2019-03-03T20:42:57.611Z,48.58
2019-03-03T20:45:29.417Z,37.82
2019-03-03T20:47:57.849Z,47.47
2019-03-03T20:50:27.174Z,43.35
2019-03-03T20:52:55.567Z,47.40
2019-03-03T20:55:29.032Z,57.78
2019-03-03T20:57:57.414Z,39.30
2019-03-03T21:00:30.602Z,41.80
2019-03-03T21:02:59.203Z,47.40
2019-03-03T21:05:27.534Z,40.67
2019-03-03T21:07:55.998Z,44.95
2019-03-03T21:10:27.190Z,42.75
2019-03-03T21:12:55.560Z,47.43
2019-03-03T21:15:24.018Z,36.20
2019-03-03T21:17:53.136Z,45.05
2019-03-03T21:20:22.363Z,39.65
2019-03-03T21:22:50.758Z,30.48
2019-03-03T21:25:19.600Z,42.70
2019-03-03T21:27:47.997Z,43.40
2019-03-03T21:30:20.871Z,42.85
2019-03-03T21:32:49.271Z,41.07
2019-03-03T21:35:17.664Z,43.52
2019-03-03T21:37:47.274Z,49.40
2019-03-03T21:40:19.955Z,54.25
2019-03-03T21:42:48.414Z,57.62
2019-03-03T21:45:18.548Z,52.35
2019-03-03T21:47:47.105Z,44.77
2019-03-03T21:50:18.074Z,42.30
2019-03-03T21:52:46.529Z,42.62
2019-03-03T21:55:15.368Z,42.90
2019-03-03T21:57:43.834Z,61.73
2019-03-03T22:00:21.080Z,53.70
2019-03-03T22:02:49.462Z,42.58
2019-03-03T22:05:17.830Z,46.33
2019-03-03T22:07:46.264Z,47.00
2019-03-03T22:10:14.796Z,48.17
2019-03-03T22:12:43.287Z,49.88
2019-03-03T22:15:13.236Z,52.33
2019-03-03T22:17:41.563Z,46.98
2019-03-03T22:20:10.867Z,49.80
2019-03-03T22:22:39.263Z,36.45
2019-03-03T22:25:11.992Z,40.27
2019-03-03T22:27:40.509Z,50.70
2019-03-03T22:30:13.870Z,49.25
2019-03-03T22:32:42.322Z,46.07
2019-03-03T22:35:10.878Z,42.90
2019-03-03T22:37:39.317Z,40.23
2019-03-03T22:40:16.633Z,48.63
2019-03-03T22:42:45.069Z,38.95
2019-03-03T22:45:15.018Z,47.27
2019-03-03T22:47:45.332Z,44.03
2019-03-03T22:50:15.889Z,42.95
2019-03-03T22:52:44.350Z,41.77
2019-03-03T22:55:14.328Z,32.55
2019-03-03T22:57:42.742Z,40.33
2019-03-03T23:00:14.581Z,44.90
2019-03-03T23:02:43.063Z,38.98
2019-03-03T23:05:32.801Z,45.98
2019-03-03T23:08:04.484Z,40.28
2019-03-03T23:11:09.570Z,39.50
2019-03-03T23:14:01.806Z,47.60
2019-03-03T23:19:38.944Z,38.63
2019-03-03T23:22:31.950Z,47.97
2019-03-03T23:25:09.288Z,43.80
2019-03-03T23:27:37.668Z,36.85
2019-03-03T23:30:07.986Z,42.20
2019-03-03T23:32:36.398Z,45.55
2019-03-03T23:35:05.826Z,47.50
2019-03-03T23:37:34.759Z,41.63
2019-03-03T23:40:03.650Z,40.80
2019-03-03T23:42:32.092Z,52.62
2019-03-03T23:45:00.696Z,55.70
2019-03-03T23:47:29.291Z,42.53
2019-03-03T23:49:57.813Z,44.20
2019-03-03T23:52:26.187Z,51.10
2019-03-03T23:54:54.565Z,51.35
2019-03-03T23:57:23.562Z,41.25
2019-03-03T23:59:52.088Z,52.67
